Portada
METAR-TAF:

METAR-TAF

Aeroports :

Lleó, Espanya

latitud: 42-35N, longitud: 005-39W, altitud: 926 m

Observació

L'informe es va fer fa 21 minuts, a les 20:30 UTC
Vent 5 kt del Oest/Nord-Oest, variant entre Oest/Sud-Oest i Nord
Temperatura 3°C
Humitat 87%
Pressió 1011 hPa
Visibilitat 10 km o més
sense núvols per sota de 1500 mi sense presència de cumulonimbus.

METAR: LELN 222030Z AUTO 30005KT 250V350 CAVOK 03/01 Q1011

Hora: 21:51 (20:51 UTC)

Pronòstic

L'informe es va fer fa 3 hores i 51 minuts, a les 17:00 UTC
Pronòstic vàlid del 22 a les 18 UTC al 23 a les 03 UTC
Vent 10 kt del Oest/Nord-Oest
Visibilitat 10 km o més
Escasses núvols a una alçada de 2000 ft
Cel ennuvolat a una alçada de 3000 ft
Probabilitat 30% :
Temporalment
l' 22 a les 18 UTC al 22 a les 24 UTC
Visibilitat: 1500 m
Cel ennuvolat a una alçada de 800 ft
neu, pluja, boirina

TAF: LELN 221700Z 2218/2303 30010KT 9999 FEW020 BKN030 PROB30 TEMPO 2218/2224 1500 SNRA BR BKN008

Observacions i pronòstics meteorològics de més de 4000 aeroports (METAR i TAF).

Les estacions disponibles són els punts grocs i vermells al mapa.

Posi el ratolí al punt desitjat per veure el nom de l'estació.

Feu clic per veure les observacions i els pronòstics meteorològics.

Per canviar el mapa: feu clic els botons verds amb una creu de color negre per apropar; al botó verd amb un guió per allunyar la imatge; o en les fletxes verdes per a mapes adjacents.


METAR-TAF: